Time;durP1;ratioP1;P1;durP2;ratioP2;P2;SDS_P1;SDS_P2;PMS_P1;PMS_P2;Temp;Humidity;BMP_temperature;BMP_pressure;BME280_temperature;BME280_humidity;BME280_pressure;Samples;Min_cycle;Max_cycle;Signal;HPM_P1;HPM_P2
2022/09/16 00:00:54;;;;;;;;;;;13.30;99.90;;;;;;5003870;28;19918;-66
2022/09/16 00:03:21;;;;;;;;;;;13.30;99.90;;;;;;5000485;28;19925;-71
2022/09/16 00:05:49;;;;;;;;;;;13.30;99.90;;;;;;4998413;28;19925;-66
2022/09/16 00:08:16;;;;;;;;;;;13.30;99.90;;;;;;4999769;28;19921;-66
2022/09/16 00:10:43;;;;;;;;;;;13.30;99.90;;;;;;5000242;28;20332;-71
2022/09/16 00:13:11;;;;;;;;;;;13.30;99.90;;;;;;5000762;28;19944;-66
2022/09/16 00:15:41;;;;;;;;;;;13.30;99.90;;;;;;4996710;28;20011;-66
2022/09/16 00:18:08;;;;;;;;;;;13.20;99.90;;;;;;5004589;28;20340;-71
2022/09/16 00:20:34;;;;;;;;;;;13.30;99.90;;;;;;5004861;28;20386;-66
2022/09/16 00:23:01;;;;;;;;;;;13.30;99.90;;;;;;5000039;28;20410;-65
2022/09/16 00:25:28;;;;;;;;;;;13.30;99.90;;;;;;5002886;28;20381;-66
2022/09/16 00:27:55;;;;;;;;;;;13.30;99.90;;;;;;5000097;28;20386;-65
2022/09/16 00:30:22;;;;;;;;;;;13.30;99.90;;;;;;4995719;28;19924;-66
2022/09/16 00:32:48;;;;;;;;;;;13.30;99.90;;;;;;4994734;28;19996;-68
2022/09/16 00:35:15;;;;;;;;;;;13.30;99.90;;;;;;5002746;28;20276;-68
2022/09/16 00:37:42;;;;;;;;;;;13.30;99.90;;;;;;5000793;28;19983;-66
2022/09/16 00:40:09;;;;;;;;;;;13.30;99.90;;;;;;5001144;28;20008;-70
2022/09/16 00:42:39;;;;;;;;;;;13.30;99.90;;;;;;4997742;28;19930;-66
2022/09/16 00:45:12;;;;;;;;;;;13.30;99.90;;;;;;5001601;28;19936;-68
2022/09/16 00:47:39;;;;;;;;;;;13.30;99.90;;;;;;4987955;28;20005;-74
2022/09/16 00:50:11;;;;;;;;;;;13.30;99.90;;;;;;4999630;28;20563;-66
2022/09/16 00:52:39;;;;;;;;;;;13.30;99.90;;;;;;4996848;28;19917;-67
2022/09/16 00:55:08;;;;;;;;;;;13.30;99.90;;;;;;4998445;28;19918;-65
2022/09/16 00:57:35;;;;;;;;;;;13.30;99.90;;;;;;5003326;28;19927;-66
2022/09/16 01:00:03;;;;;;;;;;;13.30;99.90;;;;;;5004873;28;19924;-65
2022/09/16 01:02:30;;;;;;;;;;;13.30;99.90;;;;;;4998203;28;20041;-66
2022/09/16 01:05:04;;;;;;;;;;;13.30;99.90;;;;;;5000618;28;20363;-66
2022/09/16 01:07:38;;;;;;;;;;;13.30;99.90;;;;;;5000621;28;19971;-75
2022/09/16 01:10:06;;;;;;;;;;;13.30;99.90;;;;;;5002525;28;20009;-70
2022/09/16 01:12:33;;;;;;;;;;;13.30;99.90;;;;;;5001395;28;19918;-65
2022/09/16 01:15:01;;;;;;;;;;;13.30;99.90;;;;;;4994974;28;19972;-69
2022/09/16 01:17:46;;;;;;;;;;;13.20;99.90;;;;;;5000033;28;19922;-66
2022/09/16 01:20:39;;;;;;;;;;;13.30;99.90;;;;;;4993179;28;19953;-65
2022/09/16 01:23:18;;;;;;;;;;;13.20;99.90;;;;;;4993648;28;20326;-69
2022/09/16 01:25:48;;;;;;;;;;;13.20;99.90;;;;;;4991078;28;19960;-67
2022/09/16 01:28:24;;;;;;;;;;;13.20;99.90;;;;;;5004284;28;19918;-65
2022/09/16 01:31:06;;;;;;;;;;;13.20;99.90;;;;;;5000790;28;20262;-65
2022/09/16 01:33:33;;;;;;;;;;;13.20;99.90;;;;;;4995852;28;19976;-66
2022/09/16 01:36:09;;;;;;;;;;;13.10;99.90;;;;;;5001045;28;19918;-64
2022/09/16 01:38:36;;;;;;;;;;;13.10;99.90;;;;;;5002717;28;20008;-67
2022/09/16 01:41:17;;;;;;;;;;;13.10;99.90;;;;;;5007220;28;19936;-67
2022/09/16 01:43:53;;;;;;;;;;;13.10;99.90;;;;;;4991682;28;19922;-66
2022/09/16 01:46:23;;;;;;;;;;;13.10;99.90;;;;;;5003552;28;20033;-76
2022/09/16 01:48:52;;;;;;;;;;;13.10;99.90;;;;;;4997853;28;20284;-69
2022/09/16 01:51:19;;;;;;;;;;;13.10;99.90;;;;;;4997271;28;19917;-65
2022/09/16 01:54:12;;;;;;;;;;;13.10;99.90;;;;;;4995452;28;19917;-66
2022/09/16 01:56:52;;;;;;;;;;;13.10;99.90;;;;;;4996197;28;20283;-66
2022/09/16 01:59:22;;;;;;;;;;;13.10;99.90;;;;;;5041049;28;19972;-70
2022/09/16 02:01:49;;;;;;;;;;;13.10;99.90;;;;;;5003785;28;20040;-65
2022/09/16 02:04:22;;;;;;;;;;;13.10;99.90;;;;;;5005291;28;19921;-67
2022/09/16 02:06:50;;;;;;;;;;;13.10;99.90;;;;;;4996886;28;20288;-66
2022/09/16 02:09:23;;;;;;;;;;;13.10;99.90;;;;;;5002724;28;20000;-65
2022/09/16 02:11:51;;;;;;;;;;;13.10;99.90;;;;;;4995359;28;19917;-64
2022/09/16 02:14:21;;;;;;;;;;;13.10;99.90;;;;;;4998219;28;19921;-65
2022/09/16 02:16:59;;;;;;;;;;;13.10;99.90;;;;;;5001873;28;19921;-74
2022/09/16 02:19:46;;;;;;;;;;;13.10;99.90;;;;;;5008345;28;19927;-65
2022/09/16 02:22:15;;;;;;;;;;;13.10;99.90;;;;;;4997957;28;19917;-68
2022/09/16 02:24:43;;;;;;;;;;;13.10;99.90;;;;;;5006954;28;19925;-65
2022/09/16 02:27:13;;;;;;;;;;;13.00;99.90;;;;;;5003200;28;19929;-67
2022/09/16 02:30:01;;;;;;;;;;;13.00;99.90;;;;;;4991988;28;20004;-70
2022/09/16 02:32:30;;;;;;;;;;;13.00;99.90;;;;;;4996564;28;20400;-67
2022/09/16 02:34:57;;;;;;;;;;;13.00;99.90;;;;;;5000204;28;19917;-64
2022/09/16 02:37:27;;;;;;;;;;;12.90;99.90;;;;;;5008711;28;19918;-64
2022/09/16 02:39:56;;;;;;;;;;;12.90;99.90;;;;;;5003120;28;19924;-65
2022/09/16 02:42:23;;;;;;;;;;;12.90;99.90;;;;;;4998923;28;19927;-65
2022/09/16 02:44:50;;;;;;;;;;;12.80;99.90;;;;;;5001307;28;20383;-64
2022/09/16 02:47:20;;;;;;;;;;;12.80;99.90;;;;;;4991794;28;19926;-68
2022/09/16 02:49:52;;;;;;;;;;;12.80;99.90;;;;;;4995262;28;19937;-64
2022/09/16 02:52:22;;;;;;;;;;;12.80;99.90;;;;;;5006678;28;20007;-65
2022/09/16 02:55:08;;;;;;;;;;;12.70;99.90;;;;;;5009276;28;20012;-66
2022/09/16 02:57:35;;;;;;;;;;;12.80;99.90;;;;;;5002234;28;20319;-67
2022/09/16 03:00:02;;;;;;;;;;;12.80;99.90;;;;;;5006012;28;20314;-66
2022/09/16 03:02:31;;;;;;;;;;;12.80;99.90;;;;;;5002679;28;19921;-65
2022/09/16 03:04:58;;;;;;;;;;;12.70;99.90;;;;;;4999210;28;19929;-65
2022/09/16 03:07:25;;;;;;;;;;;12.70;99.90;;;;;;5026010;28;19922;-66
2022/09/16 03:09:52;;;;;;;;;;;12.80;99.90;;;;;;4998364;28;19924;-65
2022/09/16 03:12:22;;;;;;;;;;;12.80;99.90;;;;;;5000849;28;19924;-66
2022/09/16 03:14:58;;;;;;;;;;;12.80;99.90;;;;;;4999688;28;19939;-65
2022/09/16 03:17:27;;;;;;;;;;;12.80;99.90;;;;;;4997777;28;19917;-65
2022/09/16 03:19:57;;;;;;;;;;;12.80;99.90;;;;;;4994093;28;20056;-66
2022/09/16 03:22:43;;;;;;;;;;;12.80;99.90;;;;;;4998375;28;19917;-69
2022/09/16 03:25:15;;;;;;;;;;;12.90;99.90;;;;;;4998824;28;20368;-70
2022/09/16 03:28:02;;;;;;;;;;;12.90;99.90;;;;;;5008693;28;19968;-66
2022/09/16 03:30:32;;;;;;;;;;;12.90;99.90;;;;;;4997764;28;20590;-67
2022/09/16 03:33:03;;;;;;;;;;;12.80;99.90;;;;;;5005135;28;19929;-64
2022/09/16 03:35:42;;;;;;;;;;;12.90;99.90;;;;;;5002895;28;20056;-70
2022/09/16 03:38:10;;;;;;;;;;;12.80;99.90;;;;;;4990920;28;19929;-66
2022/09/16 03:40:37;;;;;;;;;;;12.80;99.90;;;;;;5006907;28;20258;-66
2022/09/16 03:43:14;;;;;;;;;;;12.80;99.90;;;;;;5002657;28;20596;-69
2022/09/16 03:45:42;;;;;;;;;;;12.80;99.90;;;;;;4995832;28;20008;-66
2022/09/16 03:48:09;;;;;;;;;;;12.90;99.90;;;;;;5005171;28;19987;-64
2022/09/16 03:50:36;;;;;;;;;;;12.90;99.90;;;;;;5029555;28;19923;-66
2022/09/16 03:53:03;;;;;;;;;;;12.80;99.90;;;;;;5001146;28;19924;-65
2022/09/16 03:55:30;;;;;;;;;;;12.80;99.90;;;;;;4998816;28;19921;-68
2022/09/16 03:57:57;;;;;;;;;;;12.70;99.90;;;;;;5001807;28;19928;-64
2022/09/16 04:00:24;;;;;;;;;;;12.70;99.90;;;;;;4998734;28;19917;-65
2022/09/16 04:02:51;;;;;;;;;;;12.70;99.90;;;;;;5006412;28;20016;-68
2022/09/16 04:05:17;;;;;;;;;;;12.70;99.90;;;;;;4999847;28;19952;-70
2022/09/16 04:07:47;;;;;;;;;;;12.70;99.90;;;;;;4991011;28;19924;-66
2022/09/16 04:10:14;;;;;;;;;;;12.70;99.90;;;;;;5002023;28;19921;-65
2022/09/16 04:12:41;;;;;;;;;;;12.60;99.90;;;;;;5001960;28;19921;-66
2022/09/16 04:15:08;;;;;;;;;;;12.50;99.90;;;;;;5007791;28;19917;-64
2022/09/16 04:17:34;;;;;;;;;;;12.50;99.90;;;;;;5006986;28;19924;-64
2022/09/16 04:20:02;;;;;;;;;;;12.40;99.90;;;;;;4989186;28;19928;-65
2022/09/16 04:22:29;;;;;;;;;;;12.30;99.90;;;;;;4996490;28;19921;-64
2022/09/16 04:24:56;;;;;;;;;;;12.30;99.90;;;;;;5009997;28;19921;-64
2022/09/16 04:27:23;;;;;;;;;;;12.20;99.90;;;;;;5005555;28;19922;-64
2022/09/16 04:29:50;;;;;;;;;;;12.10;99.90;;;;;;4998394;28;20016;-69
2022/09/16 04:32:16;;;;;;;;;;;12.10;99.90;;;;;;4998884;28;19963;-68
2022/09/16 04:34:44;;;;;;;;;;;12.10;99.90;;;;;;4997991;28;19917;-64
2022/09/16 04:37:11;;;;;;;;;;;12.10;99.90;;;;;;5002968;28;20543;-71
2022/09/16 04:39:37;;;;;;;;;;;12.10;99.90;;;;;;5005192;28;20116;-65
2022/09/16 04:42:05;;;;;;;;;;;12.00;99.90;;;;;;5001453;28;19924;-64
2022/09/16 04:44:32;;;;;;;;;;;12.10;99.90;;;;;;4997859;28;20008;-64
2022/09/16 04:46:59;;;;;;;;;;;12.10;99.90;;;;;;4993499;28;19957;-65
2022/09/16 04:49:26;;;;;;;;;;;12.00;99.90;;;;;;4992605;28;19921;-69
2022/09/16 04:51:53;;;;;;;;;;;12.10;99.90;;;;;;4995749;28;19930;-70
2022/09/16 04:54:20;;;;;;;;;;;12.10;99.90;;;;;;4995055;28;19949;-65
2022/09/16 04:56:47;;;;;;;;;;;12.20;99.90;;;;;;5002260;28;19922;-65
2022/09/16 04:59:13;;;;;;;;;;;12.20;99.90;;;;;;5005153;28;19947;-63
2022/09/16 05:01:40;;;;;;;;;;;12.20;99.90;;;;;;4997886;28;19918;-66
2022/09/16 05:04:08;;;;;;;;;;;12.30;99.90;;;;;;4999434;28;20263;-64
2022/09/16 05:06:37;;;;;;;;;;;12.20;99.90;;;;;;4997039;28;19922;-68
2022/09/16 05:09:04;;;;;;;;;;;12.10;99.90;;;;;;4992628;28;19917;-64
2022/09/16 05:11:32;;;;;;;;;;;11.90;99.90;;;;;;4995249;28;19927;-67
2022/09/16 05:14:00;;;;;;;;;;;11.90;99.90;;;;;;4991457;28;19964;-63
2022/09/16 05:16:27;;;;;;;;;;;11.90;99.90;;;;;;4996269;28;20398;-67
2022/09/16 05:18:55;;;;;;;;;;;11.80;99.90;;;;;;4992687;28;19953;-64
2022/09/16 05:21:22;;;;;;;;;;;11.80;99.90;;;;;;4989908;28;19918;-65
2022/09/16 05:23:49;;;;;;;;;;;11.90;99.90;;;;;;4996637;28;20003;-63
2022/09/16 05:26:18;;;;;;;;;;;12.00;99.90;;;;;;4990887;28;19997;-64
2022/09/16 05:28:46;;;;;;;;;;;12.00;99.90;;;;;;4993288;28;20020;-64
2022/09/16 05:31:15;;;;;;;;;;;12.10;99.90;;;;;;4995749;28;19917;-69
2022/09/16 05:33:43;;;;;;;;;;;12.10;99.90;;;;;;4993968;28;19925;-66
2022/09/16 05:36:11;;;;;;;;;;;12.20;99.90;;;;;;4998020;28;19922;-71
2022/09/16 05:38:39;;;;;;;;;;;12.30;99.90;;;;;;4997375;28;19969;-69
2022/09/16 05:41:06;;;;;;;;;;;12.30;99.90;;;;;;4999779;28;19922;-65
2022/09/16 05:43:33;;;;;;;;;;;12.30;99.90;;;;;;5002997;28;19954;-67
2022/09/16 05:46:00;;;;;;;;;;;12.30;99.90;;;;;;5004355;28;20755;-66
2022/09/16 05:48:27;;;;;;;;;;;12.30;99.90;;;;;;5000049;28;19930;-64
2022/09/16 05:50:58;;;;;;;;;;;12.30;99.90;;;;;;4997809;28;19964;-65
2022/09/16 05:53:25;;;;;;;;;;;12.30;99.90;;;;;;5032541;28;19917;-67
2022/09/16 05:55:55;;;;;;;;;;;12.40;99.90;;;;;;4995148;28;19917;-66
2022/09/16 05:58:22;;;;;;;;;;;12.40;99.90;;;;;;4997269;28;19917;-66
2022/09/16 06:00:49;;;;;;;;;;;12.40;99.90;;;;;;4999253;28;19934;-65
2022/09/16 06:03:16;;;;;;;;;;;12.50;99.90;;;;;;4995122;28;19965;-65
2022/09/16 06:05:43;;;;;;;;;;;12.50;99.90;;;;;;4998612;28;20366;-66
2022/09/16 06:08:11;;;;;;;;;;;12.50;99.90;;;;;;4999100;28;19925;-64
2022/09/16 06:10:39;;;;;;;;;;;12.50;99.90;;;;;;4998713;28;19921;-66
2022/09/16 06:13:05;;;;;;;;;;;12.50;99.90;;;;;;4994274;28;20033;-65
2022/09/16 06:15:34;;;;;;;;;;;12.50;99.90;;;;;;4993311;28;20438;-65
2022/09/16 06:18:01;;;;;;;;;;;12.60;99.90;;;;;;5001519;28;19948;-67
2022/09/16 06:20:32;;;;;;;;;;;12.70;99.90;;;;;;4997274;28;20919;-70
2022/09/16 06:22:58;;;;;;;;;;;12.70;99.90;;;;;;5000600;28;20283;-64
2022/09/16 06:25:25;;;;;;;;;;;12.70;99.90;;;;;;5000009;28;19929;-65
2022/09/16 06:27:52;;;;;;;;;;;12.70;99.90;;;;;;4995315;28;19924;-65
2022/09/16 06:30:19;;;;;;;;;;;12.60;99.90;;;;;;4996239;28;19962;-65
2022/09/16 06:32:45;;;;;;;;;;;12.60;99.90;;;;;;4997235;28;19922;-65
2022/09/16 06:35:12;;;;;;;;;;;12.60;99.90;;;;;;4996657;28;19922;-64
2022/09/16 06:37:39;;;;;;;;;;;12.60;99.90;;;;;;4993720;28;19932;-65
2022/09/16 06:40:06;;;;;;;;;;;12.70;99.90;;;;;;4992974;28;19928;-69
2022/09/16 06:42:33;;;;;;;;;;;12.70;99.90;;;;;;4997626;28;20004;-66
2022/09/16 06:45:03;;;;;;;;;;;12.80;99.90;;;;;;4997285;28;19980;-68
2022/09/16 06:47:32;;;;;;;;;;;12.80;99.90;;;;;;4996039;28;20023;-66
2022/09/16 06:49:59;;;;;;;;;;;12.90;99.90;;;;;;4992567;28;19936;-64
2022/09/16 06:52:26;;;;;;;;;;;12.90;99.90;;;;;;5001033;28;19921;-71
2022/09/16 06:54:53;;;;;;;;;;;13.00;99.90;;;;;;4991236;28;19917;-68
2022/09/16 06:57:21;;;;;;;;;;;13.00;99.90;;;;;;5002280;28;19944;-65
2022/09/16 06:59:49;;;;;;;;;;;13.00;99.90;;;;;;4987847;28;19922;-64
2022/09/16 07:02:16;;;;;;;;;;;13.00;99.90;;;;;;4994636;28;20652;-64
2022/09/16 07:04:43;;;;;;;;;;;12.70;99.90;;;;;;4996164;28;19925;-65
2022/09/16 07:07:10;;;;;;;;;;;12.60;99.90;;;;;;4993414;28;19982;-63
2022/09/16 07:09:37;;;;;;;;;;;12.30;99.90;;;;;;4991886;28;19936;-64
2022/09/16 07:12:04;;;;;;;;;;;12.20;99.90;;;;;;4993767;28;20212;-64
2022/09/16 07:14:33;;;;;;;;;;;12.20;99.90;;;;;;4995619;28;20707;-65
2022/09/16 07:17:00;;;;;;;;;;;12.20;99.90;;;;;;4990256;28;19930;-66
2022/09/16 07:19:28;;;;;;;;;;;12.20;99.90;;;;;;4989082;28;20064;-63
2022/09/16 07:21:54;;;;;;;;;;;12.30;99.90;;;;;;4994649;28;19917;-65
2022/09/16 07:24:21;;;;;;;;;;;12.30;99.90;;;;;;4996841;28;20541;-63
2022/09/16 07:26:48;;;;;;;;;;;12.40;99.90;;;;;;4998508;28;19972;-63
2022/09/16 07:29:16;;;;;;;;;;;12.40;99.90;;;;;;4990499;28;19917;-65
2022/09/16 07:31:43;;;;;;;;;;;12.50;99.90;;;;;;4993462;28;19929;-67
2022/09/16 07:34:10;;;;;;;;;;;12.60;99.90;;;;;;4990539;28;19966;-65
2022/09/16 07:36:39;;;;;;;;;;;12.60;99.90;;;;;;4997431;28;19918;-68
2022/09/16 07:39:06;;;;;;;;;;;12.70;99.90;;;;;;4996708;28;19927;-65
2022/09/16 07:41:34;;;;;;;;;;;12.70;99.90;;;;;;4996075;28;19922;-64
2022/09/16 07:44:01;;;;;;;;;;;12.70;99.90;;;;;;4989661;28;19936;-68
2022/09/16 07:46:29;;;;;;;;;;;12.80;99.90;;;;;;4995256;28;19921;-68
2022/09/16 07:48:57;;;;;;;;;;;12.90;99.90;;;;;;4994539;28;19968;-67
2022/09/16 07:51:24;;;;;;;;;;;13.00;99.90;;;;;;4990632;28;19934;-65
2022/09/16 07:54:02;;;;;;;;;;;13.00;99.90;;;;;;4995272;28;19929;-70
2022/09/16 07:56:30;;;;;;;;;;;13.00;99.90;;;;;;4995961;28;19921;-67
2022/09/16 07:58:57;;;;;;;;;;;13.00;99.90;;;;;;4991166;28;19955;-67
2022/09/16 08:01:24;;;;;;;;;;;13.00;99.90;;;;;;4992498;28;20266;-70
2022/09/16 08:03:51;;;;;;;;;;;13.00;99.90;;;;;;4993520;28;20040;-67
2022/09/16 08:06:22;;;;;;;;;;;13.10;99.90;;;;;;4997645;28;20577;-64
2022/09/16 08:08:53;;;;;;;;;;;13.10;99.90;;;;;;4990196;28;20090;-63
2022/09/16 08:11:20;;;;;;;;;;;13.10;99.90;;;;;;4996331;28;20025;-63
2022/09/16 08:13:47;;;;;;;;;;;13.20;99.90;;;;;;4994396;28;19972;-67
2022/09/16 08:16:15;;;;;;;;;;;13.20;99.90;;;;;;4994333;28;19921;-65
2022/09/16 08:18:42;;;;;;;;;;;13.20;99.90;;;;;;4991844;28;19929;-69
2022/09/16 08:21:16;;;;;;;;;;;13.20;99.90;;;;;;4991269;28;19917;-68
2022/09/16 08:23:43;;;;;;;;;;;13.20;99.90;;;;;;4992288;28;19921;-67
2022/09/16 08:26:11;;;;;;;;;;;13.20;99.90;;;;;;4997655;28;20296;-69
2022/09/16 08:28:38;;;;;;;;;;;13.30;99.90;;;;;;5001159;28;20003;-68
2022/09/16 08:31:25;;;;;;;;;;;13.30;99.90;;;;;;5001866;28;19918;-76
2022/09/16 08:33:52;;;;;;;;;;;13.30;99.90;;;;;;4993843;28;19917;-67
2022/09/16 08:36:20;;;;;;;;;;;13.30;99.90;;;;;;4993368;28;20005;-71
2022/09/16 08:38:48;;;;;;;;;;;13.30;99.90;;;;;;4993933;28;19944;-66
2022/09/16 08:41:15;;;;;;;;;;;13.30;99.90;;;;;;4995307;28;19924;-66
2022/09/16 08:43:44;;;;;;;;;;;13.30;99.90;;;;;;5002207;28;20056;-68
2022/09/16 08:46:11;;;;;;;;;;;13.30;99.90;;;;;;4998695;28;19921;-69
2022/09/16 08:48:47;;;;;;;;;;;13.20;99.90;;;;;;4999350;28;19921;-67
2022/09/16 08:51:16;;;;;;;;;;;13.00;99.90;;;;;;4996824;28;19918;-65
2022/09/16 08:53:51;;;;;;;;;;;12.80;99.90;;;;;;4989979;28;19962;-64
2022/09/16 08:56:19;;;;;;;;;;;12.70;99.90;;;;;;4992343;28;19976;-66
2022/09/16 08:58:48;;;;;;;;;;;12.70;99.90;;;;;;4995724;28;19925;-65
2022/09/16 09:01:35;;;;;;;;;;;12.70;99.90;;;;;;4997325;28;19928;-64
2022/09/16 09:04:02;;;;;;;;;;;12.70;99.90;;;;;;4987269;28;19936;-67
2022/09/16 09:06:30;;;;;;;;;;;12.80;99.90;;;;;;4994510;28;19925;-65
2022/09/16 09:08:57;;;;;;;;;;;12.90;99.90;;;;;;4990039;28;19922;-68
2022/09/16 09:11:23;;;;;;;;;;;12.90;99.90;;;;;;4993576;28;19980;-66
2022/09/16 09:14:09;;;;;;;;;;;12.90;99.90;;;;;;4991752;28;19930;-70
2022/09/16 09:16:39;;;;;;;;;;;12.90;99.90;;;;;;4991827;28;20558;-73
2022/09/16 09:19:14;;;;;;;;;;;12.90;99.90;;;;;;4991873;28;19922;-68
2022/09/16 09:21:47;;;;;;;;;;;13.00;99.90;;;;;;4995119;28;19941;-70
2022/09/16 09:24:29;;;;;;;;;;;13.00;99.90;;;;;;4989254;28;20381;-65
2022/09/16 09:27:03;;;;;;;;;;;13.00;99.90;;;;;;4992777;28;19930;-69
2022/09/16 09:29:39;;;;;;;;;;;13.00;99.90;;;;;;4993393;28;20012;-68
2022/09/16 09:32:24;;;;;;;;;;;13.00;99.90;;;;;;4993599;28;19925;-67
2022/09/16 09:34:53;;;;;;;;;;;13.00;99.90;;;;;;4991761;28;20024;-67
2022/09/16 09:37:27;;;;;;;;;;;13.00;99.90;;;;;;4986969;28;19925;-69
2022/09/16 09:40:12;;;;;;;;;;;13.00;99.90;;;;;;4991453;28;20067;-66
2022/09/16 09:42:42;;;;;;;;;;;13.10;99.90;;;;;;4995276;28;20244;-74
2022/09/16 09:45:25;;;;;;;;;;;13.30;99.90;;;;;;4990553;28;21636;-66
2022/09/16 09:47:52;;;;;;;;;;;13.40;99.90;;;;;;4987669;28;19992;-73
2022/09/16 09:50:22;;;;;;;;;;;13.30;99.90;;;;;;4992118;28;19968;-68
2022/09/16 09:52:56;;;;;;;;;;;13.40;99.90;;;;;;5013158;28;19921;-68
2022/09/16 09:55:25;;;;;;;;;;;13.40;99.90;;;;;;4993748;28;19981;-68
2022/09/16 09:58:24;;;;;;;;;;;13.50;99.90;;;;;;4989232;28;19921;-67
2022/09/16 10:00:57;;;;;;;;;;;13.40;99.90;;;;;;4971884;28;20652;-69
2022/09/16 10:03:25;;;;;;;;;;;13.40;99.90;;;;;;4993986;28;19918;-66
2022/09/16 10:05:52;;;;;;;;;;;13.60;99.90;;;;;;4993698;28;19962;-70
2022/09/16 10:08:27;;;;;;;;;;;13.60;99.90;;;;;;4993645;28;20364;-67
2022/09/16 10:10:58;;;;;;;;;;;13.70;99.90;;;;;;4998110;28;20352;-67
2022/09/16 10:13:26;;;;;;;;;;;13.70;99.90;;;;;;4992942;28;19999;-65
2022/09/16 10:15:54;;;;;;;;;;;13.60;99.90;;;;;;4998334;28;19925;-66
2022/09/16 10:18:23;;;;;;;;;;;13.60;99.90;;;;;;4992347;28;19922;-70
2022/09/16 10:21:16;;;;;;;;;;;13.60;99.90;;;;;;4996696;28;19929;-67
2022/09/16 10:23:54;;;;;;;;;;;13.60;99.90;;;;;;4993106;28;19917;-67
2022/09/16 10:26:23;;;;;;;;;;;13.50;99.90;;;;;;5002747;28;20021;-67
2022/09/16 10:29:12;;;;;;;;;;;13.50;99.90;;;;;;5003838;28;19925;-70
2022/09/16 10:31:41;;;;;;;;;;;13.60;99.90;;;;;;4994236;28;19924;-70
2022/09/16 10:34:20;;;;;;;;;;;13.60;99.90;;;;;;4996545;28;19918;-68
2022/09/16 10:36:57;;;;;;;;;;;13.70;99.90;;;;;;4994511;28;20693;-71
2022/09/16 10:39:26;;;;;;;;;;;13.70;99.90;;;;;;4994952;28;19918;-67
2022/09/16 10:41:52;;;;;;;;;;;13.70;99.90;;;;;;5000204;28;19971;-68
2022/09/16 10:44:25;;;;;;;;;;;13.80;99.90;;;;;;4994374;28;19921;-68
2022/09/16 10:46:58;;;;;;;;;;;14.00;99.90;;;;;;4996830;28;19984;-69
2022/09/16 10:49:37;;;;;;;;;;;14.00;99.90;;;;;;4999383;28;19921;-67
2022/09/16 10:52:08;;;;;;;;;;;14.00;99.90;;;;;;4990022;28;20288;-70
2022/09/16 10:54:35;;;;;;;;;;;14.00;99.90;;;;;;4995303;28;20039;-67
2022/09/16 10:57:02;;;;;;;;;;;14.00;99.90;;;;;;5000349;28;19918;-68
2022/09/16 10:59:29;;;;;;;;;;;14.00;99.90;;;;;;5002355;28;19956;-67
2022/09/16 11:01:56;;;;;;;;;;;13.90;99.90;;;;;;4995279;28;19922;-69
2022/09/16 11:04:26;;;;;;;;;;;13.90;99.90;;;;;;4994892;28;20043;-67
2022/09/16 11:06:53;;;;;;;;;;;13.90;99.90;;;;;;4993146;28;20735;-68
2022/09/16 11:09:26;;;;;;;;;;;14.00;99.90;;;;;;4993027;28;19925;-68
2022/09/16 11:12:11;;;;;;;;;;;13.90;99.90;;;;;;4990262;28;20382;-68
2022/09/16 11:14:50;;;;;;;;;;;14.00;99.90;;;;;;4990275;28;19928;-69
2022/09/16 11:17:17;;;;;;;;;;;14.20;99.90;;;;;;4993142;28;19940;-69
2022/09/16 11:19:44;;;;;;;;;;;14.30;99.90;;;;;;4992009;28;20008;-68
2022/09/16 11:22:26;;;;;;;;;;;14.40;99.90;;;;;;4989076;28;19921;-69
2022/09/16 11:25:02;;;;;;;;;;;14.50;99.90;;;;;;4992082;28;19988;-67
2022/09/16 11:27:36;;;;;;;;;;;14.40;99.90;;;;;;4996038;28;20371;-68
2022/09/16 11:30:02;;;;;;;;;;;14.40;99.90;;;;;;4987174;28;19964;-69
2022/09/16 11:32:34;;;;;;;;;;;14.30;99.90;;;;;;4997151;28;19921;-69
2022/09/16 11:35:01;;;;;;;;;;;14.00;99.90;;;;;;4992673;28;19925;-74
2022/09/16 11:37:38;;;;;;;;;;;14.00;99.90;;;;;;4996216;28;20116;-68
2022/09/16 11:40:08;;;;;;;;;;;13.80;99.90;;;;;;4990115;28;20048;-68
2022/09/16 11:42:46;;;;;;;;;;;13.90;99.90;;;;;;4994381;28;20258;-72
2022/09/16 11:45:16;;;;;;;;;;;13.90;99.90;;;;;;4990113;28;20008;-69
2022/09/16 11:47:51;;;;;;;;;;;13.90;99.90;;;;;;4992731;28;19932;-72
2022/09/16 11:50:21;;;;;;;;;;;13.90;99.90;;;;;;4990677;28;20020;-68
2022/09/16 11:52:51;;;;;;;;;;;14.00;99.90;;;;;;4997240;28;19923;-67
2022/09/16 11:55:31;;;;;;;;;;;14.00;99.90;;;;;;4991145;28;19989;-68
2022/09/16 11:58:02;;;;;;;;;;;14.00;99.90;;;;;;4994105;28;19917;-68
2022/09/16 12:00:30;;;;;;;;;;;14.00;99.90;;;;;;4992493;28;19922;-71
2022/09/16 12:03:00;;;;;;;;;;;14.10;99.90;;;;;;4993983;28;20311;-73
2022/09/16 12:05:41;;;;;;;;;;;14.10;99.90;;;;;;5020117;28;20015;-70
2022/09/16 12:08:21;;;;;;;;;;;14.00;99.90;;;;;;4997625;28;19917;-67
2022/09/16 12:10:51;;;;;;;;;;;13.80;99.90;;;;;;4990230;28;19921;-75
2022/09/16 12:13:49;;;;;;;;;;;13.80;99.90;;;;;;4987916;28;19922;-66
2022/09/16 12:16:23;;;;;;;;;;;13.80;99.90;;;;;;4985963;28;19922;-66
2022/09/16 12:18:57;;;;;;;;;;;13.90;99.90;;;;;;4977854;28;19957;-70
2022/09/16 12:21:26;;;;;;;;;;;14.10;99.90;;;;;;4992560;28;20386;-71
2022/09/16 12:23:56;;;;;;;;;;;14.30;99.90;;;;;;4991735;28;20347;-68
2022/09/16 12:26:26;;;;;;;;;;;14.30;99.90;;;;;;4995556;28;19917;-67
2022/09/16 12:29:05;;;;;;;;;;;14.20;99.90;;;;;;4990421;28;19972;-67
2022/09/16 12:31:35;;;;;;;;;;;14.20;99.90;;;;;;4996259;28;19929;-70
2022/09/16 12:34:12;;;;;;;;;;;14.10;99.90;;;;;;4994790;28;19994;-69
2022/09/16 12:36:41;;;;;;;;;;;14.20;99.90;;;;;;4993930;28;19932;-69
2022/09/16 12:39:09;;;;;;;;;;;14.20;99.90;;;;;;4993680;28;19949;-72
2022/09/16 12:41:36;;;;;;;;;;;14.20;99.90;;;;;;4996968;28;19954;-69
2022/09/16 12:44:18;;;;;;;;;;;14.20;99.90;;;;;;4998560;28;19921;-68
2022/09/16 12:47:00;;;;;;;;;;;14.20;99.90;;;;;;4999938;28;19965;-66
2022/09/16 12:49:55;;;;;;;;;;;14.10;99.90;;;;;;4994372;28;20053;-68
2022/09/16 12:52:26;;;;;;;;;;;14.10;99.90;;;;;;4993717;28;19972;-69
2022/09/16 12:55:00;;;;;;;;;;;14.10;99.90;;;;;;4991637;28;19989;-68
2022/09/16 12:57:43;;;;;;;;;;;14.20;99.90;;;;;;4997648;28;19933;-69
2022/09/16 13:00:19;;;;;;;;;;;14.20;99.90;;;;;;4996500;28;19925;-69
2022/09/16 13:02:51;;;;;;;;;;;14.30;99.90;;;;;;4995794;28;19971;-69
2022/09/16 13:05:25;;;;;;;;;;;14.30;99.90;;;;;;4996624;28;20024;-68
2022/09/16 13:07:59;;;;;;;;;;;14.30;99.90;;;;;;4993076;28;22288;-70
2022/09/16 13:10:34;;;;;;;;;;;14.20;99.90;;;;;;4993305;28;19917;-67
2022/09/16 13:13:43;;;;;;;;;;;13.90;99.90;;;;;;4990633;28;19917;-69
2022/09/16 13:16:11;;;;;;;;;;;13.60;99.90;;;;;;4987882;28;19922;-67
2022/09/16 13:18:40;;;;;;;;;;;13.50;99.90;;;;;;4990359;28;19921;-70
2022/09/16 13:21:12;;;;;;;;;;;13.50;99.90;;;;;;4989480;28;19925;-68
2022/09/16 13:23:42;;;;;;;;;;;13.60;99.90;;;;;;4982954;28;19927;-68
2022/09/16 13:26:13;;;;;;;;;;;13.70;99.90;;;;;;5021550;28;19939;-67
2022/09/16 13:28:44;;;;;;;;;;;13.80;99.90;;;;;;4993304;28;19924;-71
2022/09/16 13:31:12;;;;;;;;;;;13.80;99.90;;;;;;4991784;28;20317;-70
2022/09/16 13:33:39;;;;;;;;;;;13.80;99.90;;;;;;4992540;28;19948;-71
2022/09/16 13:36:18;;;;;;;;;;;13.80;99.90;;;;;;4995290;28;19953;-69
2022/09/16 13:38:52;;;;;;;;;;;13.60;99.90;;;;;;4994671;28;19994;-67
2022/09/16 13:41:28;;;;;;;;;;;13.50;99.90;;;;;;4997781;28;20000;-68
2022/09/16 13:43:55;;;;;;;;;;;13.30;99.90;;;;;;4991581;28;20013;-70
2022/09/16 13:46:35;;;;;;;;;;;13.10;99.90;;;;;;4989371;28;19930;-69
2022/09/16 13:49:05;;;;;;;;;;;13.00;99.90;;;;;;4994231;28;19917;-67
2022/09/16 13:51:32;;;;;;;;;;;12.90;99.90;;;;;;4995321;28;19926;-68
2022/09/16 13:54:03;;;;;;;;;;;12.90;99.90;;;;;;4995451;28;20411;-68
2022/09/16 13:56:45;;;;;;;;;;;12.90;99.90;;;;;;4994906;28;19924;-68
2022/09/16 13:59:19;;;;;;;;;;;13.00;99.90;;;;;;5005127;28;20478;-68
2022/09/16 14:02:04;;;;;;;;;;;13.30;99.90;;;;;;4989362;28;19924;-67
2022/09/16 14:04:50;;;;;;;;;;;13.40;99.90;;;;;;4994076;28;19928;-69
2022/09/16 14:07:17;;;;;;;;;;;13.50;99.90;;;;;;4989700;28;19922;-69
2022/09/16 14:09:53;;;;;;;;;;;13.60;99.90;;;;;;4993079;28;19927;-68
2022/09/16 14:12:27;;;;;;;;;;;13.60;99.90;;;;;;4996230;28;19926;-68
2022/09/16 14:14:56;;;;;;;;;;;13.70;99.90;;;;;;4990431;28;20020;-68
2022/09/16 14:17:24;;;;;;;;;;;13.70;99.90;;;;;;4989996;28;19935;-68
2022/09/16 14:19:54;;;;;;;;;;;13.70;99.90;;;;;;4988066;28;19980;-68
2022/09/16 14:22:22;;;;;;;;;;;13.90;99.90;;;;;;4997859;28;19929;-68
2022/09/16 14:24:48;;;;;;;;;;;14.10;99.90;;;;;;4998395;28;19921;-69
2022/09/16 14:27:38;;;;;;;;;;;14.10;99.90;;;;;;5001741;28;20303;-68
2022/09/16 14:30:12;;;;;;;;;;;14.20;99.90;;;;;;4996123;28;19960;-67
2022/09/16 14:32:40;;;;;;;;;;;14.20;99.90;;;;;;4989421;28;19922;-69
2022/09/16 14:35:23;;;;;;;;;;;14.10;99.90;;;;;;4996684;28;19948;-68
2022/09/16 14:37:52;;;;;;;;;;;14.10;99.90;;;;;;4998777;28;20305;-69